Darstellungsparameter: Aktuell verwendete Einstellungen:
Skalierung der Graphiken ... ?
xyx+y,   Skalierungsfaktor:      Skalierung: Modus: x, Faktor: 1
Darstellungszeitraum ... ?
Vom - - bis: - -   Zeitraum: 03.03.2021 - 03.03.2021
Min/Max/Avg-Anzeige ... ?
Zeige MMA aktuell
Zeige MMA Monat
Zeige MMA alles
Zeige --A aktuell
Zeige --A Monat
Zeige --A alles
Keine MMA-Anzeige
MMA:
Keine MMA-Graphiken
MMA-Basis: 03.03.2021 - 03.03.2021
Quicknavigation für Darstellung... ?
Tage:      1T, 2T, 3T, 5T -1T -2T -3T -5T +1T +2T +3T +5T
Wochen: 1W, 2W, 3W -1W -2W -3W +1W +2W +3W
Monate: 1M, 3M, 6M -1M -3M -6M +1M +3M +6M
Jahre:    1J, 3J, 5J, 10J -1J -3J -5J -10J +1J +3J +5J +10J
Nutze für die Darstellung ... ?
Originaldaten oder Mittelwerte auf ...
Stundenbasis Tagesbasis Wochenbasis
Monatsbasis Jahresbasis      Datenbasis: Original-Daten
Darstellen als:
Statistik (Auto) Statistik J:M      Darstellung:
Zur Graphik,    zurück zur Übersicht aller Sensoren.
 
Tabellarische Datenbersicht: ?
 
Sensor: Nr:Datum:Temp:Feuchte:Taupunkt:
Aussen-T/F 1 03-03-2021 00:00:00 2.9 C 91 % 1.58 C
2 03-03-2021 00:05:00 2.8 C 91 % 1.48 C
3 03-03-2021 00:10:00 2.8 C 91 % 1.48 C
4 03-03-2021 00:15:00 2.7 C 92 % 1.53 C
5 03-03-2021 00:20:00 2.6 C 92 % 1.43 C
6 03-03-2021 00:25:00 2.6 C 92 % 1.43 C
7 03-03-2021 00:30:00 2.6 C 92 % 1.43 C
8 03-03-2021 00:35:00 2.6 C 92 % 1.43 C
9 03-03-2021 00:40:00 2.5 C 92 % 1.34 C
10 03-03-2021 00:45:00 2.5 C 92 % 1.34 C
11 03-03-2021 00:50:00 2.4 C 92 % 1.24 C
12 03-03-2021 00:55:00 2.4 C 93 % 1.39 C
13 03-03-2021 01:00:00 2.3 C 93 % 1.29 C
14 03-03-2021 01:05:00 2.3 C 93 % 1.29 C
15 03-03-2021 01:10:00 2.3 C 93 % 1.29 C
16 03-03-2021 01:15:00 2.3 C 93 % 1.29 C
17 03-03-2021 01:20:00 2.2 C 93 % 1.19 C
18 03-03-2021 01:25:00 2.1 C 93 % 1.09 C
19 03-03-2021 01:30:00 2 C 93 % 0.99 C
20 03-03-2021 01:35:00 1.9 C 93 % 0.89 C
21 03-03-2021 01:40:00 1.8 C 93 % 0.79 C
22 03-03-2021 01:45:00 1.8 C 93 % 0.79 C
23 03-03-2021 01:50:00 1.8 C 93 % 0.79 C
24 03-03-2021 01:55:00 1.8 C 93 % 0.79 C
25 03-03-2021 02:00:00 1.7 C 93 % 0.69 C
Sensor: Nr:Datum:Temp:Feuchte:Taupunkt:
Aussen-T/F 26 03-03-2021 02:05:00 1.7 C 93 % 0.69 C
27 03-03-2021 02:10:00 1.5 C 93 % 0.49 C
28 03-03-2021 02:15:00 1.5 C 94 % 0.64 C
29 03-03-2021 02:20:00 1.4 C 93 % 0.4 C
30 03-03-2021 02:25:00 1.5 C 94 % 0.64 C
31 03-03-2021 02:30:00 1.4 C 94 % 0.54 C
32 03-03-2021 02:35:00 1.4 C 94 % 0.54 C
33 03-03-2021 02:40:00 1.3 C 94 % 0.44 C
34 03-03-2021 02:45:00 1.2 C 94 % 0.34 C
35 03-03-2021 02:50:00 1.2 C 94 % 0.34 C
36 03-03-2021 02:55:00 1.2 C 94 % 0.34 C
37 03-03-2021 03:00:00 1.2 C 94 % 0.34 C
38 03-03-2021 03:05:00 1.1 C 94 % 0.24 C
39 03-03-2021 03:10:00 1.2 C 94 % 0.34 C
40 03-03-2021 03:15:00 1.2 C 94 % 0.34 C
41 03-03-2021 03:20:00 1.2 C 94 % 0.34 C
42 03-03-2021 03:25:00 1.1 C 94 % 0.24 C
43 03-03-2021 03:30:00 1.1 C 94 % 0.24 C
44 03-03-2021 03:35:00 1 C 94 % 0.15 C
45 03-03-2021 03:40:00 0.9 C 94 % 0.05 C
46 03-03-2021 03:45:00 1 C 94 % 0.15 C
47 03-03-2021 03:50:00 1 C 94 % 0.15 C
48 03-03-2021 03:55:00 1.1 C 95 % 0.39 C
49 03-03-2021 04:00:00 1.1 C 95 % 0.39 C
50 03-03-2021 04:05:00 1.2 C 95 % 0.49 C
Sensor: Nr:Datum:Temp:Feuchte:Taupunkt:
Aussen-T/F 51 03-03-2021 04:10:00 1.2 C 95 % 0.49 C
52 03-03-2021 04:15:00 1.2 C 95 % 0.49 C
53 03-03-2021 04:20:00 1.3 C 95 % 0.59 C
54 03-03-2021 04:25:00 1.4 C 95 % 0.69 C
55 03-03-2021 04:30:00 1.5 C 95 % 0.79 C
56 03-03-2021 04:35:00 1.4 C 95 % 0.69 C
57 03-03-2021 04:40:00 1.3 C 95 % 0.59 C
58 03-03-2021 04:45:00 1.2 C 95 % 0.49 C
59 03-03-2021 04:50:00 1.1 C 94 % 0.24 C
60 03-03-2021 04:55:00 1 C 95 % 0.29 C
61 03-03-2021 05:00:00 0.9 C 95 % 0.19 C
62 03-03-2021 05:05:00 0.8 C 94 % -0.05 C
63 03-03-2021 05:10:00 0.8 C 95 % 0.09 C
64 03-03-2021 05:15:00 0.8 C 95 % 0.09 C
65 03-03-2021 05:20:00 0.7 C 95 % -0.01 C
66 03-03-2021 05:25:00 0.7 C 95 % -0.01 C
67 03-03-2021 05:30:00 0.8 C 95 % 0.09 C
68 03-03-2021 05:35:00 0.9 C 95 % 0.19 C
69 03-03-2021 05:40:00 1 C 95 % 0.29 C
70 03-03-2021 05:45:00 1.1 C 95 % 0.39 C
71 03-03-2021 05:50:00 1.1 C 95 % 0.39 C
72 03-03-2021 05:55:00 1.1 C 95 % 0.39 C
73 03-03-2021 06:00:00 1 C 95 % 0.29 C
74 03-03-2021 06:05:00 0.9 C 95 % 0.19 C
75 03-03-2021 06:10:00 0.8 C 95 % 0.09 C
Sensor: Nr:Datum:Temp:Feuchte:Taupunkt:
Aussen-T/F 76 03-03-2021 06:15:00 0.8 C 95 % 0.09 C
77 03-03-2021 06:20:00 0.7 C 95 % -0.01 C
78 03-03-2021 06:25:00 0.7 C 95 % -0.01 C
79 03-03-2021 06:30:00 0.7 C 95 % -0.01 C
80 03-03-2021 06:35:00 0.8 C 95 % 0.09 C
81 03-03-2021 06:40:00 0.9 C 95 % 0.19 C
82 03-03-2021 06:45:00 0.9 C 96 % 0.34 C
83 03-03-2021 06:50:00 0.9 C 95 % 0.19 C
84 03-03-2021 06:55:00 0.9 C 95 % 0.19 C
85 03-03-2021 07:00:00 0.9 C 95 % 0.19 C
86 03-03-2021 07:05:00 0.8 C 95 % 0.09 C
87 03-03-2021 07:10:00 0.8 C 95 % 0.09 C
88 03-03-2021 07:15:00 0.7 C 95 % -0.01 C
89 03-03-2021 07:20:00 0.7 C 95 % -0.01 C
90 03-03-2021 07:25:00 0.6 C 95 % -0.11 C
91 03-03-2021 07:30:00 0.6 C 95 % -0.11 C
92 03-03-2021 07:35:00 0.7 C 95 % -0.01 C
93 03-03-2021 07:40:00 0.7 C 95 % -0.01 C
94 03-03-2021 07:45:00 0.8 C 95 % 0.09 C
95 03-03-2021 07:50:00 0.9 C 96 % 0.34 C
96 03-03-2021 07:55:00 0.9 C 96 % 0.34 C
97 03-03-2021 08:00:00 1.1 C 96 % 0.54 C
98 03-03-2021 08:05:00 1.1 C 96 % 0.54 C
99 03-03-2021 08:10:00 1.2 C 96 % 0.63 C
100 03-03-2021 08:15:00 1.3 C 96 % 0.73 C
Sensor: Nr:Datum:Temp:Feuchte:Taupunkt:
Aussen-T/F 101 03-03-2021 08:20:00 1.4 C 96 % 0.83 C
102 03-03-2021 08:25:00 1.5 C 96 % 0.93 C
103 03-03-2021 08:30:00 1.6 C 96 % 1.03 C
104 03-03-2021 08:35:00 1.7 C 96 % 1.13 C
105 03-03-2021 08:40:00 1.8 C 96 % 1.23 C
106 03-03-2021 08:45:00 1.9 C 96 % 1.33 C
107 03-03-2021 08:50:00 1.9 C 96 % 1.33 C
108 03-03-2021 08:55:00 2 C 96 % 1.43 C
109 03-03-2021 09:00:00 2.1 C 96 % 1.53 C
110 03-03-2021 09:05:00 2.1 C 96 % 1.53 C
111 03-03-2021 09:10:00 2.2 C 96 % 1.63 C
112 03-03-2021 09:15:00 2.2 C 96 % 1.63 C
113 03-03-2021 09:20:00 2.3 C 96 % 1.73 C
114 03-03-2021 09:25:00 2.3 C 96 % 1.73 C
115 03-03-2021 09:30:00 2.4 C 96 % 1.83 C
116 03-03-2021 09:35:00 2.6 C 96 % 2.03 C
117 03-03-2021 09:40:00 2.6 C 96 % 2.03 C
118 03-03-2021 09:45:00 2.6 C 96 % 2.03 C
119 03-03-2021 09:50:00 2.7 C 95 % 1.98 C
120 03-03-2021 09:55:00 2.7 C 95 % 1.98 C
121 03-03-2021 10:00:00 2.8 C 95 % 2.08 C
122 03-03-2021 10:05:00 2.8 C 95 % 2.08 C
123 03-03-2021 10:10:00 2.9 C 96 % 2.33 C
124 03-03-2021 10:15:00 3 C 95 % 2.28 C
125 03-03-2021 10:20:00 3.2 C 95 % 2.48 C
Sensor: Nr:Datum:Temp:Feuchte:Taupunkt:
Aussen-T/F 126 03-03-2021 10:25:00 3.3 C 95 % 2.58 C
127 03-03-2021 10:30:00 3.4 C 95 % 2.68 C
128 03-03-2021 10:35:00 3.6 C 96 % 3.02 C
129 03-03-2021 10:40:00 3.8 C 96 % 3.22 C
130 03-03-2021 10:45:00 3.9 C 95 % 3.17 C
131 03-03-2021 10:50:00 4.2 C 95 % 3.47 C
132 03-03-2021 10:55:00 4.3 C 95 % 3.57 C
133 03-03-2021 11:00:00 4.6 C 95 % 3.87 C
134 03-03-2021 11:05:00 4.8 C 94 % 3.92 C
135 03-03-2021 11:10:00 5.1 C 94 % 4.22 C
136 03-03-2021 11:15:00 5.3 C 93 % 4.26 C
137 03-03-2021 11:20:00 5.7 C 92 % 4.5 C
138 03-03-2021 11:25:00 6 C 91 % 4.65 C
139 03-03-2021 11:30:00 6.3 C 90 % 4.78 C
140 03-03-2021 11:35:00 6.6 C 89 % 4.92 C
141 03-03-2021 11:40:00 7 C 88 % 5.15 C
142 03-03-2021 11:45:00 7.3 C 86 % 5.12 C
143 03-03-2021 11:50:00 7.7 C 84 % 5.17 C
144 03-03-2021 11:55:00 8 C 83 % 5.29 C
145 03-03-2021 12:00:00 8.3 C 82 % 5.41 C
146 03-03-2021 12:05:00 8.6 C 81 % 5.53 C
147 03-03-2021 12:10:00 8.9 C 79 % 5.46 C
148 03-03-2021 12:15:00 9.2 C 78 % 5.57 C
149 03-03-2021 12:20:00 9.5 C 78 % 5.86 C
150 03-03-2021 12:25:00 9.9 C 79 % 6.43 C
Sensor: Nr:Datum:Temp:Feuchte:Taupunkt:
Aussen-T/F 151 03-03-2021 12:30:00 10.4 C 80 % 7.1 C
152 03-03-2021 12:35:00 10.8 C 75 % 6.55 C
153 03-03-2021 12:40:00 11.2 C 71 % 6.14 C
154 03-03-2021 12:45:00 11.4 C 70 % 6.13 C
155 03-03-2021 12:50:00 11.6 C 69 % 6.11 C
156 03-03-2021 12:55:00 11.8 C 69 % 6.31 C
157 03-03-2021 13:00:00 12.2 C 71 % 7.1 C
158 03-03-2021 13:05:00 12.5 C 70 % 7.18 C
159 03-03-2021 13:10:00 12.7 C 68 % 6.95 C
160 03-03-2021 13:15:00 12.9 C 66 % 6.71 C
161 03-03-2021 13:20:00 13.2 C 64 % 6.55 C
162 03-03-2021 13:25:00 13.5 C 64 % 6.83 C
163 03-03-2021 13:30:00 13.7 C 64 % 7.02 C
164 03-03-2021 13:35:00 14 C 65 % 7.53 C
165 03-03-2021 13:40:00 14.4 C 61 % 6.98 C
166 03-03-2021 13:45:00 14.7 C 59 % 6.78 C
167 03-03-2021 13:50:00 15 C 59 % 7.06 C
168 03-03-2021 13:55:00 15.3 C 58 % 7.09 C
169 03-03-2021 14:00:00 15.6 C 55 % 6.6 C
170 03-03-2021 14:05:00 15.8 C 56 % 7.05 C
171 03-03-2021 14:10:00 15.7 C 57 % 7.21 C
172 03-03-2021 14:15:00 15.5 C 57 % 7.03 C
173 03-03-2021 14:20:00 15.4 C 58 % 7.19 C
174 03-03-2021 14:25:00 15.4 C 58 % 7.19 C
175 03-03-2021 14:30:00 15.4 C 58 % 7.19 C
Sensor: Nr:Datum:Temp:Feuchte:Taupunkt:
Aussen-T/F 176 03-03-2021 14:35:00 15.5 C 57 % 7.03 C
177 03-03-2021 14:40:00 15.6 C 57 % 7.12 C
178 03-03-2021 14:45:00 15.7 C 57 % 7.21 C
179 03-03-2021 14:50:00 15.8 C 56 % 7.05 C
180 03-03-2021 14:55:00 15.8 C 58 % 7.56 C
181 03-03-2021 15:00:00 15.9 C 56 % 7.14 C
182 03-03-2021 15:05:00 15.9 C 56 % 7.14 C
183 03-03-2021 15:10:00 16 C 56 % 7.24 C
184 03-03-2021 15:15:00 16.1 C 56 % 7.33 C
185 03-03-2021 15:20:00 16.1 C 54 % 6.8 C
186 03-03-2021 15:25:00 16.2 C 54 % 6.89 C
187 03-03-2021 15:30:00 16.2 C 58 % 7.94 C
188 03-03-2021 15:35:00 16.3 C 56 % 7.52 C
189 03-03-2021 15:40:00 16.3 C 53 % 6.71 C
190 03-03-2021 15:45:00 16.4 C 53 % 6.81 C
191 03-03-2021 15:50:00 16.5 C 55 % 7.44 C
192 03-03-2021 15:55:00 16.6 C 52 % 6.71 C
193 03-03-2021 16:00:00 16.6 C 53 % 6.99 C
194 03-03-2021 16:05:00 16.6 C 51 % 6.43 C
195 03-03-2021 16:10:00 16.7 C 54 % 7.36 C
196 03-03-2021 16:15:00 16.7 C 55 % 7.62 C
197 03-03-2021 16:20:00 16.8 C 56 % 7.98 C
198 03-03-2021 16:25:00 16.8 C 55 % 7.72 C
199 03-03-2021 16:30:00 16.7 C 55 % 7.62 C
200 03-03-2021 16:35:00 16.7 C 59 % 8.66 C
Sensor: Nr:Datum:Temp:Feuchte:Taupunkt:
Aussen-T/F 201 03-03-2021 16:40:00 16.6 C 58 % 8.31 C
202 03-03-2021 16:45:00 16.5 C 58 % 8.22 C
203 03-03-2021 16:50:00 16.3 C 58 % 8.03 C
204 03-03-2021 16:55:00 16.1 C 59 % 8.09 C
205 03-03-2021 17:00:00 15.9 C 60 % 8.15 C
206 03-03-2021 17:05:00 15.6 C 62 % 8.35 C
207 03-03-2021 17:10:00 15.3 C 63 % 8.31 C
208 03-03-2021 17:15:00 15.1 C 63 % 8.12 C
209 03-03-2021 17:20:00 14.9 C 63 % 7.93 C
210 03-03-2021 17:25:00 14.6 C 65 % 8.1 C
211 03-03-2021 17:30:00 14.3 C 65 % 7.82 C
212 03-03-2021 17:35:00 14 C 65 % 7.53 C
213 03-03-2021 17:40:00 13.7 C 67 % 7.69 C
214 03-03-2021 17:45:00 13.4 C 67 % 7.4 C
215 03-03-2021 17:50:00 13.1 C 67 % 7.12 C
216 03-03-2021 17:55:00 12.7 C 68 % 6.95 C
217 03-03-2021 18:00:00 12.4 C 69 % 6.88 C
218 03-03-2021 18:05:00 12.1 C 70 % 6.8 C
219 03-03-2021 18:10:00 11.9 C 70 % 6.61 C
220 03-03-2021 18:15:00 11.7 C 71 % 6.62 C
221 03-03-2021 18:20:00 11.4 C 71 % 6.34 C
222 03-03-2021 18:25:00 11.3 C 72 % 6.44 C
223 03-03-2021 18:30:00 11.1 C 72 % 6.25 C
224 03-03-2021 18:35:00 10.8 C 73 % 6.16 C
225 03-03-2021 18:40:00 10.7 C 74 % 6.26 C
Sensor: Nr:Datum:Temp:Feuchte:Taupunkt:
Aussen-T/F 226 03-03-2021 18:45:00 10.6 C 74 % 6.17 C
227 03-03-2021 18:50:00 10.4 C 75 % 6.17 C
228 03-03-2021 18:55:00 10.3 C 75 % 6.07 C
229 03-03-2021 19:00:00 10.2 C 76 % 6.16 C
230 03-03-2021 19:05:00 10.1 C 76 % 6.07 C
231 03-03-2021 19:10:00 10 C 76 % 5.97 C
232 03-03-2021 19:15:00 9.9 C 76 % 5.87 C
233 03-03-2021 19:20:00 9.9 C 77 % 6.06 C
234 03-03-2021 19:25:00 9.8 C 77 % 5.97 C
235 03-03-2021 19:30:00 9.8 C 77 % 5.97 C
236 03-03-2021 19:35:00 9.7 C 77 % 5.87 C
237 03-03-2021 19:40:00 9.6 C 77 % 5.77 C
238 03-03-2021 19:45:00 9.4 C 77 % 5.58 C
239 03-03-2021 19:50:00 9.3 C 78 % 5.67 C
240 03-03-2021 19:55:00 9.3 C 79 % 5.85 C
241 03-03-2021 20:00:00 9.3 C 80 % 6.03 C
242 03-03-2021 20:05:00 9.2 C 79 % 5.75 C
243 03-03-2021 20:10:00 9.1 C 79 % 5.66 C
244 03-03-2021 20:15:00 9 C 79 % 5.56 C
245 03-03-2021 20:20:00 8.8 C 79 % 5.36 C
246 03-03-2021 20:25:00 8.7 C 79 % 5.27 C
247 03-03-2021 20:30:00 8.5 C 79 % 5.07 C
248 03-03-2021 20:35:00 8.3 C 80 % 5.06 C
249 03-03-2021 20:40:00 8.2 C 81 % 5.14 C
250 03-03-2021 20:45:00 8.2 C 82 % 5.32 C
Sensor: Nr:Datum:Temp:Feuchte:Taupunkt:
Aussen-T/F 251 03-03-2021 20:50:00 8.1 C 83 % 5.39 C
252 03-03-2021 20:55:00 8.1 C 83 % 5.39 C
253 03-03-2021 21:00:00 8.1 C 83 % 5.39 C
254 03-03-2021 21:05:00 8.1 C 83 % 5.39 C
255 03-03-2021 21:10:00 8 C 83 % 5.29 C
256 03-03-2021 21:15:00 7.9 C 83 % 5.2 C
257 03-03-2021 21:20:00 7.8 C 83 % 5.1 C
258 03-03-2021 21:25:00 7.8 C 83 % 5.1 C
259 03-03-2021 21:30:00 7.7 C 83 % 5 C
260 03-03-2021 21:35:00 7.7 C 83 % 5 C
261 03-03-2021 21:40:00 7.6 C 84 % 5.07 C
262 03-03-2021 21:45:00 7.6 C 84 % 5.07 C
263 03-03-2021 21:50:00 7.6 C 84 % 5.07 C
264 03-03-2021 21:55:00 7.6 C 84 % 5.07 C
265 03-03-2021 22:00:00 7.7 C 84 % 5.17 C
266 03-03-2021 22:05:00 7.7 C 84 % 5.17 C
267 03-03-2021 22:10:00 7.8 C 84 % 5.27 C
268 03-03-2021 22:15:00 7.8 C 84 % 5.27 C
269 03-03-2021 22:20:00 7.9 C 84 % 5.37 C
270 03-03-2021 22:25:00 8 C 84 % 5.47 C
271 03-03-2021 22:30:00 8.1 C 84 % 5.56 C
272 03-03-2021 22:35:00 8.1 C 83 % 5.39 C
273 03-03-2021 22:40:00 8 C 83 % 5.29 C
274 03-03-2021 22:45:00 7.9 C 83 % 5.2 C
275 03-03-2021 22:50:00 7.8 C 83 % 5.1 C
Sensor: Nr:Datum:Temp:Feuchte:Taupunkt:
Aussen-T/F 276 03-03-2021 22:55:00 7.8 C 84 % 5.27 C
277 03-03-2021 23:00:00 7.7 C 84 % 5.17 C
278 03-03-2021 23:05:00 7.7 C 84 % 5.17 C
279 03-03-2021 23:10:00 7.7 C 84 % 5.17 C
280 03-03-2021 23:15:00 7.7 C 85 % 5.34 C
281 03-03-2021 23:20:00 7.7 C 85 % 5.34 C
282 03-03-2021 23:25:00 7.7 C 85 % 5.34 C
283 03-03-2021 23:30:00 7.7 C 85 % 5.34 C
284 03-03-2021 23:35:00 7.8 C 85 % 5.44 C
285 03-03-2021 23:40:00 7.9 C 84 % 5.37 C
286 03-03-2021 23:45:00 8 C 84 % 5.47 C
287 03-03-2021 23:50:00 8 C 84 % 5.47 C
288 03-03-2021 23:55:00 7.9 C 83 % 5.2 C

Legende:
   Min
   Max


Maximal/Minimal-Werte vom 03.03.2021 - 03.03.2021

Sensor Min Max Avg
Temp
(Aussen-T/F)
0.6 °C
03-03-2021  07:25:00
16.8 °C
03-03-2021  16:20:00
6.84 °C
Feuchte
(Aussen-T/F)
51 %
03-03-2021  16:05:00
96 %
03-03-2021  06:45:00
82.61 %
Taupunkt
(Aussen-T/F)
-0.11 C
03-03-2021  07:25:00
8.66 C
03-03-2021  16:35:00
3.76 C

Die Daten stammen von einer Davis Vantage Pro 2 Wetter-Station und werden unter Linux mit der Software wview2wettercgi und aufbereitet. Alle Angaben erfolgen ohne Gewähr für ihre Vollständigkeit oder Richtigkeit.
Kontakt: Rainer Krienke krienke@uni-koblenz.de . Meine Webseiten an der Uni Koblenz oder privat.
Version: $Revision: 0.78 $